sensor_id;sensor_type;location;lat;lon;timestamp;pressure;altitude;pressure_sealevel;temperature;humidity
75998;BME280;64685;48.762;44.822;2023-10-13T00:04:43;102014.59;;;6.68;54.85
75998;BME280;64685;48.762;44.822;2023-10-13T00:09:49;102047.44;;;6.76;55.11
75998;BME280;64685;48.762;44.822;2023-10-13T00:14:52;102036.31;;;6.76;55.79
75998;BME280;64685;48.762;44.822;2023-10-13T00:19:56;102015.19;;;6.70;55.18
75998;BME280;64685;48.762;44.822;2023-10-13T00:25:03;102001.47;;;6.58;56.13
75998;BME280;64685;48.762;44.822;2023-10-13T00:30:07;102022.63;;;6.64;56.23
75998;BME280;64685;48.762;44.822;2023-10-13T00:35:27;102043.97;;;6.59;56.57
75998;BME280;64685;48.762;44.822;2023-10-13T00:40:40;102028.53;;;6.41;57.97
75998;BME280;64685;48.762;44.822;2023-10-13T00:45:57;102040.19;;;6.43;57.59
75998;BME280;64685;48.762;44.822;2023-10-13T00:51:05;102044.44;;;6.24;58.75
75998;BME280;64685;48.762;44.822;2023-10-13T00:56:20;102044.81;;;6.06;60.52
75998;BME280;64685;48.762;44.822;2023-10-13T01:01:24;102049.63;;;5.89;61.10
75998;BME280;64685;48.762;44.822;2023-10-13T01:06:36;102026.28;;;5.64;62.00
75998;BME280;64685;48.762;44.822;2023-10-13T01:11:50;102042.38;;;5.67;63.00
75998;BME280;64685;48.762;44.822;2023-10-13T01:16:56;102032.00;;;5.57;63.60
75998;BME280;64685;48.762;44.822;2023-10-13T01:22:01;102040.19;;;5.47;64.06
75998;BME280;64685;48.762;44.822;2023-10-13T01:27:09;102013.31;;;5.26;63.66
75998;BME280;64685;48.762;44.822;2023-10-13T01:32:23;102007.56;;;5.11;64.70
75998;BME280;64685;48.762;44.822;2023-10-13T01:37:27;102018.06;;;5.09;65.95
75998;BME280;64685;48.762;44.822;2023-10-13T01:42:33;102019.75;;;5.10;66.69
75998;BME280;64685;48.762;44.822;2023-10-13T01:47:39;102017.22;;;5.09;67.31
75998;BME280;64685;48.762;44.822;2023-10-13T01:52:49;102016.28;;;5.03;67.01
75998;BME280;64685;48.762;44.822;2023-10-13T01:57:53;102006.91;;;5.04;67.72
75998;BME280;64685;48.762;44.822;2023-10-13T02:02:57;102015.16;;;4.99;67.21
75998;BME280;64685;48.762;44.822;2023-10-13T02:08:03;102005.66;;;4.95;67.52
75998;BME280;64685;48.762;44.822;2023-10-13T02:13:08;102009.69;;;4.88;68.81
75998;BME280;64685;48.762;44.822;2023-10-13T02:18:22;102012.16;;;4.84;68.71
75998;BME280;64685;48.762;44.822;2023-10-13T02:23:49;101983.78;;;4.56;69.72
75998;BME280;64685;48.762;44.822;2023-10-13T02:29:06;101993.06;;;4.50;70.18
75998;BME280;64685;48.762;44.822;2023-10-13T02:34:21;101972.84;;;4.33;71.01
75998;BME280;64685;48.762;44.822;2023-10-13T02:39:26;101983.00;;;4.27;71.73
75998;BME280;64685;48.762;44.822;2023-10-13T02:44:30;101985.44;;;4.24;72.64
75998;BME280;64685;48.762;44.822;2023-10-13T02:49:38;101984.41;;;4.13;73.08
75998;BME280;64685;48.762;44.822;2023-10-13T02:54:45;101980.59;;;4.14;73.77
75998;BME280;64685;48.762;44.822;2023-10-13T02:59:53;101981.91;;;4.12;74.23
75998;BME280;64685;48.762;44.822;2023-10-13T03:05:14;101971.00;;;4.05;75.17
75998;BME280;64685;48.762;44.822;2023-10-13T03:10:19;101981.59;;;4.08;75.10
75998;BME280;64685;48.762;44.822;2023-10-13T03:15:23;101953.09;;;3.91;75.38
75998;BME280;64685;48.762;44.822;2023-10-13T03:20:33;101973.28;;;4.08;76.27
75998;BME280;64685;48.762;44.822;2023-10-13T03:25:44;101985.59;;;4.17;76.56
75998;BME280;64685;48.762;44.822;2023-10-13T03:30:55;101984.25;;;4.20;76.68
75998;BME280;64685;48.762;44.822;2023-10-13T03:36:04;101954.84;;;4.14;76.97
75998;BME280;64685;48.762;44.822;2023-10-13T03:41:08;101950.25;;;4.19;77.09
75998;BME280;64685;48.762;44.822;2023-10-13T03:46:21;101973.97;;;4.48;76.49
75998;BME280;64685;48.762;44.822;2023-10-13T03:51:24;101978.28;;;4.61;76.81
75998;BME280;64685;48.762;44.822;2023-10-13T03:56:34;101982.16;;;4.76;76.73
75998;BME280;64685;48.762;44.822;2023-10-13T04:01:45;101973.97;;;4.86;75.55
75998;BME280;64685;48.762;44.822;2023-10-13T04:06:54;101973.03;;;4.97;74.59
75998;BME280;64685;48.762;44.822;2023-10-13T04:12:15;101986.59;;;5.15;75.08
75998;BME280;64685;48.762;44.822;2023-10-13T04:17:41;101982.91;;;5.31;74.52
75998;BME280;64685;48.762;44.822;2023-10-13T04:22:47;101970.81;;;5.37;72.80
75998;BME280;64685;48.762;44.822;2023-10-13T04:27:54;101976.16;;;5.70;71.96
75998;BME280;64685;48.762;44.822;2023-10-13T04:33:20;101972.63;;;5.96;71.65
75998;BME280;64685;48.762;44.822;2023-10-13T04:38:54;101970.59;;;6.18;69.64
75998;BME280;64685;48.762;44.822;2023-10-13T04:44:03;101971.44;;;6.50;69.12
75998;BME280;64685;48.762;44.822;2023-10-13T04:49:26;101971.44;;;6.87;66.72
75998;BME280;64685;48.762;44.822;2023-10-13T04:54:52;101972.22;;;7.29;65.84
75998;BME280;64685;48.762;44.822;2023-10-13T05:00:04;101964.28;;;7.67;64.31
75998;BME280;64685;48.762;44.822;2023-10-13T05:05:14;101962.19;;;8.14;62.84
75998;BME280;64685;48.762;44.822;2023-10-13T05:10:20;101954.94;;;8.73;60.61
75998;BME280;64685;48.762;44.822;2023-10-13T05:15:47;101959.84;;;9.31;58.83
75998;BME280;64685;48.762;44.822;2023-10-13T05:21:10;101952.50;;;9.50;57.73
75998;BME280;64685;48.762;44.822;2023-10-13T05:26:31;101948.50;;;9.71;55.65
75998;BME280;64685;48.762;44.822;2023-10-13T05:31:52;101930.88;;;9.76;54.66
75998;BME280;64685;48.762;44.822;2023-10-13T05:37:13;101942.44;;;10.03;53.15
75998;BME280;64685;48.762;44.822;2023-10-13T05:42:35;101924.38;;;10.62;52.46
75998;BME280;64685;48.762;44.822;2023-10-13T05:47:56;101913.66;;;11.21;51.34
75998;BME280;64685;48.762;44.822;2023-10-13T05:53:14;101907.22;;;11.86;48.64
75998;BME280;64685;48.762;44.822;2023-10-13T05:58:17;101902.91;;;12.44;47.21
75998;BME280;64685;48.762;44.822;2023-10-13T06:03:38;101903.94;;;13.61;44.97
75998;BME280;64685;48.762;44.822;2023-10-13T06:08:59;101905.31;;;14.87;41.97
75998;BME280;64685;48.762;44.822;2023-10-13T06:14:21;101896.69;;;15.53;40.20
75998;BME280;64685;48.762;44.822;2023-10-13T06:19:42;101886.78;;;16.32;38.76
75998;BME280;64685;48.762;44.822;2023-10-13T06:25:05;101896.81;;;16.92;37.46
75998;BME280;64685;48.762;44.822;2023-10-13T06:30:26;101897.84;;;15.60;38.27
75998;BME280;64685;48.762;44.822;2023-10-13T06:35:29;101900.59;;;16.50;37.17
75998;BME280;64685;48.762;44.822;2023-10-13T06:40:34;101884.53;;;16.97;36.31
75998;BME280;64685;48.762;44.822;2023-10-13T06:45:38;101891.31;;;17.50;35.80
75998;BME280;64685;48.762;44.822;2023-10-13T06:50:47;101888.34;;;16.92;36.21
75998;BME280;64685;48.762;44.822;2023-10-13T06:55:50;101873.56;;;16.15;36.58
75998;BME280;64685;48.762;44.822;2023-10-13T07:00:55;101882.81;;;15.99;37.69
75998;BME280;64685;48.762;44.822;2023-10-13T07:06:00;101866.06;;;15.68;37.74
75998;BME280;64685;48.762;44.822;2023-10-13T07:11:03;101868.88;;;16.28;37.23
75998;BME280;64685;48.762;44.822;2023-10-13T07:16:10;101857.91;;;16.69;36.47
75998;BME280;64685;48.762;44.822;2023-10-13T07:21:32;101862.19;;;17.21;35.66
75998;BME280;64685;48.762;44.822;2023-10-13T07:26:35;101843.03;;;18.05;34.70
75998;BME280;64685;48.762;44.822;2023-10-13T07:31:58;101841.38;;;17.83;34.02
75998;BME280;64685;48.762;44.822;2023-10-13T07:37:01;101831.78;;;18.49;33.40
75998;BME280;64685;48.762;44.822;2023-10-13T07:42:10;101822.56;;;19.09;32.66
75998;BME280;64685;48.762;44.822;2023-10-13T07:47:22;101820.72;;;19.25;31.82
75998;BME280;64685;48.762;44.822;2023-10-13T07:52:27;101813.00;;;19.61;31.48
75998;BME280;64685;48.762;44.822;2023-10-13T07:57:39;101802.63;;;19.65;31.42
75998;BME280;64685;48.762;44.822;2023-10-13T08:03:12;101800.78;;;20.24;30.72
75998;BME280;64685;48.762;44.822;2023-10-13T08:08:18;101783.41;;;19.11;32.02
75998;BME280;64685;48.762;44.822;2023-10-13T08:13:22;101794.19;;;17.96;33.83
75998;BME280;64685;48.762;44.822;2023-10-13T08:18:25;101792.97;;;17.44;35.17
75998;BME280;64685;48.762;44.822;2023-10-13T08:23:33;101789.38;;;18.29;34.04
75998;BME280;64685;48.762;44.822;2023-10-13T08:28:54;101774.06;;;18.74;33.56
75998;BME280;64685;48.762;44.822;2023-10-13T08:33:59;101776.31;;;18.81;33.44
75998;BME280;64685;48.762;44.822;2023-10-13T08:39:09;101777.75;;;19.35;32.19
75998;BME280;64685;48.762;44.822;2023-10-13T08:44:45;101765.31;;;19.91;30.76
75998;BME280;64685;48.762;44.822;2023-10-13T08:49:54;101751.41;;;20.87;29.36
75998;BME280;64685;48.762;44.822;2023-10-13T08:55:13;101751.22;;;20.34;29.36
75998;BME280;64685;48.762;44.822;2023-10-13T09:00:46;101740.00;;;19.98;29.62
75998;BME280;64685;48.762;44.822;2023-10-13T09:06:01;101739.16;;;20.99;28.46
75998;BME280;64685;48.762;44.822;2023-10-13T09:11:09;101718.16;;;21.38;27.55
75998;BME280;64685;48.762;44.822;2023-10-13T09:16:15;101715.31;;;21.38;27.50
75998;BME280;64685;48.762;44.822;2023-10-13T09:21:25;101721.09;;;21.76;27.13
75998;BME280;64685;48.762;44.822;2023-10-13T09:26:53;101712.56;;;20.76;27.60
75998;BME280;64685;48.762;44.822;2023-10-13T09:32:01;101719.88;;;19.48;28.86
75998;BME280;64685;48.762;44.822;2023-10-13T09:37:05;101701.28;;;18.75;29.79
75998;BME280;64685;48.762;44.822;2023-10-13T09:42:09;101697.44;;;19.43;28.99
75998;BME280;64685;48.762;44.822;2023-10-13T09:47:14;101685.28;;;21.94;26.51
75998;BME280;64685;48.762;44.822;2023-10-13T09:52:20;101672.84;;;21.45;27.10
75998;BME280;64685;48.762;44.822;2023-10-13T09:57:34;101682.91;;;20.42;27.44
75998;BME280;64685;48.762;44.822;2023-10-13T10:02:43;101684.34;;;20.21;27.52
75998;BME280;64685;48.762;44.822;2023-10-13T10:07:57;101687.88;;;21.45;26.21
75998;BME280;64685;48.762;44.822;2023-10-13T10:13:56;101683.16;;;20.99;26.86
75998;BME280;64685;48.762;44.822;2023-10-13T10:18:41;101692.25;;;20.89;27.41
75998;BME280;64685;48.762;44.822;2023-10-13T10:23:52;101682.09;;;20.26;28.50
75998;BME280;64685;48.762;44.822;2023-10-13T10:28:56;101666.13;;;19.79;29.47
75998;BME280;64685;48.762;44.822;2023-10-13T10:33:59;101666.59;;;19.53;30.19
75998;BME280;64685;48.762;44.822;2023-10-13T10:39:16;101684.41;;;19.66;30.94
75998;BME280;64685;48.762;44.822;2023-10-13T10:44:21;101672.16;;;20.98;29.94
75998;BME280;64685;48.762;44.822;2023-10-13T10:49:38;101669.72;;;22.29;28.82
75998;BME280;64685;48.762;44.822;2023-10-13T10:54:44;101666.94;;;22.55;28.29
75998;BME280;64685;48.762;44.822;2023-10-13T10:59:54;101644.56;;;22.80;28.03
75998;BME280;64685;48.762;44.822;2023-10-13T11:05:17;101639.16;;;22.97;28.07
75998;BME280;64685;48.762;44.822;2023-10-13T11:10:24;101642.00;;;23.23;27.26
75998;BME280;64685;48.762;44.822;2023-10-13T11:15:43;101641.19;;;22.71;28.10
75998;BME280;64685;48.762;44.822;2023-10-13T11:20:49;101642.09;;;21.50;29.70
75998;BME280;64685;48.762;44.822;2023-10-13T11:25:58;101643.53;;;20.41;30.60
75998;BME280;64685;48.762;44.822;2023-10-13T11:31:04;101647.91;;;20.07;31.29
75998;BME280;64685;48.762;44.822;2023-10-13T11:36:13;101646.75;;;19.96;31.35
75998;BME280;64685;48.762;44.822;2023-10-13T11:41:30;101643.91;;;19.26;32.35
75998;BME280;64685;48.762;44.822;2023-10-13T11:46:38;101655.53;;;18.85;33.32
75998;BME280;64685;48.762;44.822;2023-10-13T11:52:08;101647.31;;;18.32;34.22
75998;BME280;64685;48.762;44.822;2023-10-13T11:57:20;101664.47;;;18.27;34.25
75998;BME280;64685;48.762;44.822;2023-10-13T12:02:24;101657.81;;;17.99;34.95
75998;BME280;64685;48.762;44.822;2023-10-13T12:07:30;101636.69;;;17.52;35.65
75998;BME280;64685;48.762;44.822;2023-10-13T12:12:51;101641.88;;;17.29;36.73
75998;BME280;64685;48.762;44.822;2023-10-13T12:17:57;101653.84;;;17.06;36.93
75998;BME280;64685;48.762;44.822;2023-10-13T12:23:01;101633.94;;;17.23;36.75
75998;BME280;64685;48.762;44.822;2023-10-13T12:28:12;101638.47;;;17.44;36.76
75998;BME280;64685;48.762;44.822;2023-10-13T12:33:21;101631.00;;;17.40;36.60
75998;BME280;64685;48.762;44.822;2023-10-13T12:38:27;101616.13;;;17.10;37.33
75998;BME280;64685;48.762;44.822;2023-10-13T12:44:00;101622.78;;;16.85;37.30
75998;BME280;64685;48.762;44.822;2023-10-13T12:49:41;101633.66;;;16.75;37.79
75998;BME280;64685;48.762;44.822;2023-10-13T12:54:49;101638.53;;;16.66;38.13
75998;BME280;64685;48.762;44.822;2023-10-13T13:00:10;101648.59;;;16.46;38.65
75998;BME280;64685;48.762;44.822;2023-10-13T13:05:24;101643.53;;;16.31;39.02
75998;BME280;64685;48.762;44.822;2023-10-13T13:10:31;101645.22;;;16.24;38.86
75998;BME280;64685;48.762;44.822;2023-10-13T13:15:38;101623.53;;;16.07;39.33
75998;BME280;64685;48.762;44.822;2023-10-13T13:20:42;101629.34;;;16.02;39.40
75998;BME280;64685;48.762;44.822;2023-10-13T13:26:05;101633.06;;;15.94;39.75
75998;BME280;64685;48.762;44.822;2023-10-13T13:31:23;101636.91;;;15.81;39.81
75998;BME280;64685;48.762;44.822;2023-10-13T13:36:32;101639.09;;;15.67;39.95
75998;BME280;64685;48.762;44.822;2023-10-13T13:41:35;101642.44;;;15.52;40.23
75998;BME280;64685;48.762;44.822;2023-10-13T13:46:42;101624.41;;;15.36;40.57
75998;BME280;64685;48.762;44.822;2023-10-13T13:52:08;101635.66;;;15.28;40.83
75998;BME280;64685;48.762;44.822;2023-10-13T13:57:12;101634.16;;;15.05;41.06
75998;BME280;64685;48.762;44.822;2023-10-13T14:02:16;101634.16;;;14.96;41.17
75998;BME280;64685;48.762;44.822;2023-10-13T14:07:23;101631.97;;;14.85;41.07
75998;BME280;64685;48.762;44.822;2023-10-13T14:12:27;101633.75;;;14.64;41.34
75998;BME280;64685;48.762;44.822;2023-10-13T14:17:46;101660.06;;;14.59;41.91
75998;BME280;64685;48.762;44.822;2023-10-13T14:22:52;101641.53;;;14.58;41.61
75998;BME280;64685;48.762;44.822;2023-10-13T14:27:55;101634.09;;;14.54;41.76
75998;BME280;64685;48.762;44.822;2023-10-13T14:33:01;101646.28;;;14.41;41.84
75998;BME280;64685;48.762;44.822;2023-10-13T14:38:04;101643.59;;;14.36;41.72
75998;BME280;64685;48.762;44.822;2023-10-13T14:43:07;101658.31;;;14.24;41.88
75998;BME280;64685;48.762;44.822;2023-10-13T14:48:12;101649.28;;;14.14;42.82
75998;BME280;64685;48.762;44.822;2023-10-13T14:53:20;101655.75;;;14.14;42.96
75998;BME280;64685;48.762;44.822;2023-10-13T14:58:27;101647.91;;;14.03;44.03
75998;BME280;64685;48.762;44.822;2023-10-13T15:03:30;101657.63;;;13.97;43.97
75998;BME280;64685;48.762;44.822;2023-10-13T15:08:40;101655.97;;;13.96;44.04
75998;BME280;64685;48.762;44.822;2023-10-13T15:13:49;101669.84;;;13.92;44.38
75998;BME280;64685;48.762;44.822;2023-10-13T15:18:53;101672.97;;;13.91;44.70
75998;BME280;64685;48.762;44.822;2023-10-13T15:23:57;101675.91;;;13.86;45.35
75998;BME280;64685;48.762;44.822;2023-10-13T15:29:06;101664.84;;;13.81;45.04
75998;BME280;64685;48.762;44.822;2023-10-13T15:34:12;101677.97;;;13.72;45.50
75998;BME280;64685;48.762;44.822;2023-10-13T15:39:15;101675.66;;;13.74;45.41
75998;BME280;64685;48.762;44.822;2023-10-13T15:44:20;101670.72;;;13.71;46.25
75998;BME280;64685;48.762;44.822;2023-10-13T15:49:29;101678.59;;;13.69;46.47
75998;BME280;64685;48.762;44.822;2023-10-13T15:54:35;101674.94;;;13.60;46.69
75998;BME280;64685;48.762;44.822;2023-10-13T15:59:44;101678.53;;;13.60;47.25
75998;BME280;64685;48.762;44.822;2023-10-13T16:04:50;101661.66;;;13.52;47.72
75998;BME280;64685;48.762;44.822;2023-10-13T16:09:55;101662.31;;;13.49;48.11
75998;BME280;64685;48.762;44.822;2023-10-13T16:15:05;101665.72;;;13.46;48.47
75998;BME280;64685;48.762;44.822;2023-10-13T16:20:16;101667.66;;;13.37;49.14
75998;BME280;64685;48.762;44.822;2023-10-13T16:25:19;101654.91;;;13.31;49.33
75998;BME280;64685;48.762;44.822;2023-10-13T16:30:28;101654.38;;;13.29;49.64
75998;BME280;64685;48.762;44.822;2023-10-13T16:35:31;101654.38;;;13.29;49.57
75998;BME280;64685;48.762;44.822;2023-10-13T16:40:36;101658.56;;;13.18;49.66
75998;BME280;64685;48.762;44.822;2023-10-13T16:45:42;101660.69;;;13.13;49.80
75998;BME280;64685;48.762;44.822;2023-10-13T16:50:52;101669.41;;;13.11;50.24
75998;BME280;64685;48.762;44.822;2023-10-13T16:55:59;101672.94;;;13.17;50.11
75998;BME280;64685;48.762;44.822;2023-10-13T17:01:15;101672.41;;;13.15;49.72
75998;BME280;64685;48.762;44.822;2023-10-13T17:06:20;101678.69;;;13.12;49.88
75998;BME280;64685;48.762;44.822;2023-10-13T17:11:32;101685.22;;;13.07;50.31
75998;BME280;64685;48.762;44.822;2023-10-13T17:16:38;101680.56;;;13.03;50.53
75998;BME280;64685;48.762;44.822;2023-10-13T17:21:43;101680.88;;;13.01;50.86
75998;BME280;64685;48.762;44.822;2023-10-13T17:26:47;101670.28;;;12.98;50.76
75998;BME280;64685;48.762;44.822;2023-10-13T17:31:52;101674.00;;;12.93;50.92
75998;BME280;64685;48.762;44.822;2023-10-13T17:36:57;101660.84;;;12.81;50.77
75998;BME280;64685;48.762;44.822;2023-10-13T17:42:03;101666.66;;;12.84;51.37
75998;BME280;64685;48.762;44.822;2023-10-13T17:47:08;101659.38;;;12.83;51.43
75998;BME280;64685;48.762;44.822;2023-10-13T17:52:13;101665.66;;;12.80;52.10
75998;BME280;64685;48.762;44.822;2023-10-13T17:57:16;101659.81;;;12.77;51.76
75998;BME280;64685;48.762;44.822;2023-10-13T18:02:19;101669.72;;;12.74;52.00
75998;BME280;64685;48.762;44.822;2023-10-13T18:07:22;101676.97;;;12.75;52.19
75998;BME280;64685;48.762;44.822;2023-10-13T18:12:29;101685.38;;;12.75;52.17
75998;BME280;64685;48.762;44.822;2023-10-13T18:17:34;101689.84;;;12.63;52.74
75998;BME280;64685;48.762;44.822;2023-10-13T18:22:37;101681.94;;;12.65;53.22
75998;BME280;64685;48.762;44.822;2023-10-13T18:27:46;101666.91;;;12.61;53.24
75998;BME280;64685;48.762;44.822;2023-10-13T18:32:50;101675.41;;;12.69;53.22
75998;BME280;64685;48.762;44.822;2023-10-13T18:37:56;101668.56;;;12.75;53.17
75998;BME280;64685;48.762;44.822;2023-10-13T18:43:04;101673.53;;;12.78;53.40
75998;BME280;64685;48.762;44.822;2023-10-13T18:48:07;101663.75;;;12.76;53.36
75998;BME280;64685;48.762;44.822;2023-10-13T18:53:10;101663.66;;;12.81;53.72
75998;BME280;64685;48.762;44.822;2023-10-13T18:58:13;101665.00;;;12.83;54.07
75998;BME280;64685;48.762;44.822;2023-10-13T19:03:16;101655.78;;;12.83;54.27
75998;BME280;64685;48.762;44.822;2023-10-13T19:08:20;101651.94;;;12.79;54.36
75998;BME280;64685;48.762;44.822;2023-10-13T19:13:23;101659.81;;;12.77;54.67
75998;BME280;64685;48.762;44.822;2023-10-13T19:18:27;101665.31;;;12.82;54.78
75998;BME280;64685;48.762;44.822;2023-10-13T19:23:34;101654.94;;;12.82;55.06
75998;BME280;64685;48.762;44.822;2023-10-13T19:28:40;101655.44;;;12.84;55.42
75998;BME280;64685;48.762;44.822;2023-10-13T19:33:47;101661.69;;;12.81;55.88
75998;BME280;64685;48.762;44.822;2023-10-13T19:38:53;101659.00;;;12.76;56.10
75998;BME280;64685;48.762;44.822;2023-10-13T19:43:58;101661.31;;;12.74;56.39
75998;BME280;64685;48.762;44.822;2023-10-13T19:49:07;101657.53;;;12.79;56.34
75998;BME280;64685;48.762;44.822;2023-10-13T19:54:10;101664.59;;;12.76;56.44
75998;BME280;64685;48.762;44.822;2023-10-13T19:59:16;101655.78;;;12.83;56.28
75998;BME280;64685;48.762;44.822;2023-10-13T20:04:21;101658.97;;;12.90;56.53
75998;BME280;64685;48.762;44.822;2023-10-13T20:09:24;101641.09;;;12.86;56.60
75998;BME280;64685;48.762;44.822;2023-10-13T20:14:27;101630.94;;;12.90;56.30
75998;BME280;64685;48.762;44.822;2023-10-13T20:19:30;101648.88;;;13.02;56.36
75998;BME280;64685;48.762;44.822;2023-10-13T20:24:33;101646.47;;;13.09;56.66
75998;BME280;64685;48.762;44.822;2023-10-13T20:29:36;101633.06;;;13.06;56.52
75998;BME280;64685;48.762;44.822;2023-10-13T20:34:43;101655.91;;;13.13;57.04
75998;BME280;64685;48.762;44.822;2023-10-13T20:39:45;101628.63;;;13.05;57.23
75998;BME280;64685;48.762;44.822;2023-10-13T20:44:48;101649.16;;;13.14;57.14
75998;BME280;64685;48.762;44.822;2023-10-13T20:49:51;101655.34;;;13.25;57.09
75998;BME280;64685;48.762;44.822;2023-10-13T20:54:55;101655.09;;;13.35;57.02
75998;BME280;64685;48.762;44.822;2023-10-13T20:59:58;101658.78;;;13.43;56.70
75998;BME280;64685;48.762;44.822;2023-10-13T21:05:01;101653.22;;;13.52;55.94
75998;BME280;64685;48.762;44.822;2023-10-13T21:10:11;101662.03;;;13.59;56.01
75998;BME280;64685;48.762;44.822;2023-10-13T21:15:17;101677.25;;;13.66;55.79
75998;BME280;64685;48.762;44.822;2023-10-13T21:20:20;101666.56;;;13.68;55.85
75998;BME280;64685;48.762;44.822;2023-10-13T21:25:23;101673.53;;;13.71;55.79
75998;BME280;64685;48.762;44.822;2023-10-13T21:30:30;101685.91;;;13.70;56.25
75998;BME280;64685;48.762;44.822;2023-10-13T21:35:33;101679.75;;;13.68;56.29
75998;BME280;64685;48.762;44.822;2023-10-13T21:40:41;101689.22;;;13.72;56.31
75998;BME280;64685;48.762;44.822;2023-10-13T21:45:44;101688.53;;;13.75;56.61
75998;BME280;64685;48.762;44.822;2023-10-13T21:50:48;101689.69;;;13.74;57.10
75998;BME280;64685;48.762;44.822;2023-10-13T21:55:51;101680.13;;;13.75;56.65
75998;BME280;64685;48.762;44.822;2023-10-13T22:00:53;101695.19;;;13.79;57.27
75998;BME280;64685;48.762;44.822;2023-10-13T22:05:58;101696.09;;;13.66;56.92
75998;BME280;64685;48.762;44.822;2023-10-13T22:11:03;101698.47;;;13.73;57.04
75998;BME280;64685;48.762;44.822;2023-10-13T22:16:07;101699.28;;;13.73;57.58
75998;BME280;64685;48.762;44.822;2023-10-13T22:21:14;101711.66;;;13.72;58.08
75998;BME280;64685;48.762;44.822;2023-10-13T22:26:22;101704.03;;;13.64;58.66
75998;BME280;64685;48.762;44.822;2023-10-13T22:31:24;101699.22;;;13.64;58.51
75998;BME280;64685;48.762;44.822;2023-10-13T22:36:28;101706.84;;;13.64;59.19
75998;BME280;64685;48.762;44.822;2023-10-13T22:41:30;101702.34;;;13.63;59.59
75998;BME280;64685;48.762;44.822;2023-10-13T22:46:36;101700.69;;;13.62;59.48
75998;BME280;64685;48.762;44.822;2023-10-13T22:51:38;101711.09;;;13.62;59.97
75998;BME280;64685;48.762;44.822;2023-10-13T22:56:42;101698.19;;;13.60;60.71
75998;BME280;64685;48.762;44.822;2023-10-13T23:01:45;101706.97;;;13.59;60.35
75998;BME280;64685;48.762;44.822;2023-10-13T23:06:47;101712.56;;;13.59;60.55
75998;BME280;64685;48.762;44.822;2023-10-13T23:11:56;101716.91;;;13.65;61.15
75998;BME280;64685;48.762;44.822;2023-10-13T23:16:59;101712.94;;;13.66;61.14
75998;BME280;64685;48.762;44.822;2023-10-13T23:22:05;101709.13;;;13.62;61.42
75998;BME280;64685;48.762;44.822;2023-10-13T23:27:08;101705.34;;;13.66;61.39
75998;BME280;64685;48.762;44.822;2023-10-13T23:32:11;101712.28;;;13.69;61.38
75998;BME280;64685;48.762;44.822;2023-10-13T23:37:14;101714.72;;;13.62;61.61
75998;BME280;64685;48.762;44.822;2023-10-13T23:42:17;101715.03;;;13.60;62.67
75998;BME280;64685;48.762;44.822;2023-10-13T23:47:26;101719.19;;;13.63;62.86
75998;BME280;64685;48.762;44.822;2023-10-13T23:52:30;101723.69;;;13.64;62.40
75998;BME280;64685;48.762;44.822;2023-10-13T23:57:35;101708.34;;;13.48;63.04
